KDDC/DDC METAR and TAF weather

Enter ICAO airport designator
Station Type Date Time Source
KDDC METAR 2019/07/15 19:52 UTC NOAA

KDDC 151952Z AUTO 18009G14KT 7SM CLR 33/19 A2998 RMK AO2 SLP115 T03330189


Station Type Date Time Source
KDDC Decoded METAR 2019/07/15 19:52 UTC NOAA

DODGE CITY REGIONAL AIRPORT, KS, United States (KDDC) 37-46N 99-58W 789M
Jul 15, 2019 - 03:52 PM EDT / 2019.07.15 1952 UTC
Wind: from the S (180 degrees) at 10 MPH (9 KT) gusting to 16 MPH (14 KT):0
Visibility: 7 mile(s):0
Sky conditions: clear
Temperature: 91.9 F (33.3 C)
Heat index: 94.5 F (34.7 C):1
Dew Point: 66.0 F (18.9 C)
Relative Humidity: 42%
Pressure (altimeter): 29.98 in. Hg (1015 hPa)
ob: KDDC 151952Z AUTO 18009G14KT 7SM CLR 33/19 A2998 RMK AO2 SLP115 T03330189
cycle: 20

Station Type Date Time Source
KDDC TAF 2019/07/15 18:22 UTC NOAA

TAF KDDC 151720Z 1518/1618 18010KT P6SM SKC
FM160200 15007KT P6SM SKC

Example: see airport list